Time;durP1;ratioP1;P1;durP2;ratioP2;P2;SDS_P1;SDS_P2;PMS_P1;PMS_P2;Temp;Humidity;BMP_temperature;BMP_pressure;BME280_temperature;BME280_humidity;BME280_pressure;Samples;Min_cycle;Max_cycle;Signal;HPM_P1;HPM_P2
2021/06/05 00:01:37;;;;;;;12.83;5.40;;;;;;;13.41;67.28;99856.25;130086;1090;22564;-54
2021/06/05 00:04:05;;;;;;;20.23;6.10;;;;;;;13.35;67.26;99857.31;129976;1088;113933;-54
2021/06/05 00:06:34;;;;;;;21.93;6.95;;;;;;;13.30;67.55;99851.81;130094;1089;22607;-53
2021/06/05 00:09:05;;;;;;;19.48;6.50;;;;;;;13.26;67.62;99847.16;130010;1089;114231;-53
2021/06/05 00:11:48;;;;;;;22.95;6.30;;;;;;;13.21;67.97;99844.39;130087;1090;22578;-53
2021/06/05 00:14:17;;;;;;;27.28;6.78;;;;;;;13.17;67.90;99837.80;130105;1090;22556;-53
2021/06/05 00:16:48;;;;;;;22.90;6.88;;;;;;;13.13;67.99;99842.15;130006;1088;113807;-53
2021/06/05 00:19:18;;;;;;;20.40;7.13;;;;;;;13.06;68.16;99840.47;130427;1089;23359;-53
2021/06/05 00:21:47;;;;;;;16.20;6.25;;;;;;;13.03;68.25;99843.73;130403;1090;113906;-53
2021/06/05 00:24:17;;;;;;;11.00;5.43;;;;;;;12.98;68.44;99837.42;130463;1089;22519;-53
2021/06/05 00:26:45;;;;;;;11.95;6.50;;;;;;;12.93;68.63;99835.48;130464;1088;22567;-54
2021/06/05 00:29:14;;;;;;;20.85;6.65;;;;;;;12.88;68.71;99837.35;130321;1090;114287;-54
2021/06/05 00:31:43;;;;;;;10.00;5.73;;;;;;;12.83;68.75;99835.44;130516;1089;22638;-54
2021/06/05 00:34:12;;;;;;;11.95;5.53;;;;;;;12.81;68.77;99834.05;130343;1088;113971;-54
2021/06/05 00:36:40;;;;;;;13.48;6.55;;;;;;;12.77;68.75;99836.48;130493;1090;23297;-54
2021/06/05 00:39:09;;;;;;;24.45;7.75;;;;;;;12.73;69.10;99830.71;130243;1090;116691;-59
2021/06/05 00:41:38;;;;;;;22.10;7.30;;;;;;;12.71;69.14;99838.34;130413;1090;22589;-60
2021/06/05 00:44:08;;;;;;;20.28;6.25;;;;;;;12.67;69.23;99830.96;130460;1089;22565;-59
2021/06/05 00:46:37;;;;;;;10.38;5.78;;;;;;;12.65;69.31;99836.69;130355;1090;114524;-60
2021/06/05 00:49:06;;;;;;;16.78;6.18;;;;;;;12.62;69.63;99841.85;130425;1088;22545;-59
2021/06/05 00:51:44;;;;;;;22.18;6.10;;;;;;;12.58;69.40;99838.81;130330;1090;114509;-59
2021/06/05 00:54:13;;;;;;;20.10;6.63;;;;;;;12.55;69.71;99838.54;130274;1090;22527;-59
2021/06/05 00:56:43;;;;;;;19.75;6.00;;;;;;;12.52;70.00;99845.35;130284;1090;23385;-59
2021/06/05 00:59:12;;;;;;;36.73;7.48;;;;;;;12.53;70.15;99843.44;130053;1089;114199;-59
2021/06/05 01:01:41;;;;;;;51.95;8.33;;;;;;;12.51;69.96;99837.41;130510;1090;22500;-59
2021/06/05 01:04:10;;;;;;;39.58;8.00;;;;;;;12.49;70.10;99843.14;130390;1089;114002;-59
2021/06/05 01:06:43;;;;;;;37.10;7.70;;;;;;;12.49;70.09;99842.31;130177;1090;23313;-59
2021/06/05 01:09:23;;;;;;;33.48;7.73;;;;;;;12.46;70.35;99840.92;130317;1088;114050;-59
2021/06/05 01:12:06;;;;;;;27.88;7.73;;;;;;;12.44;70.32;99840.36;130179;1090;22688;-59
2021/06/05 01:15:08;;;;;;;28.10;7.98;;;;;;;12.40;70.80;99833.79;130183;1089;22636;-59
2021/06/05 01:17:39;;;;;;;;;;;;;;;12.40;70.86;99836.52;130200;1090;113697;-59
2021/06/05 01:20:39;;;;;;;28.13;7.00;;;;;;;12.36;70.98;99840.86;130175;1090;21252;-59
2021/06/05 01:23:39;;;;;;;27.03;7.10;;;;;;;12.34;70.89;99841.12;129670;1093;113963;-59
2021/06/05 01:26:25;;;;;;;19.93;7.08;;;;;;;12.33;71.14;99838.64;129683;1093;22554;-59
2021/06/05 01:28:58;;;;;;;19.53;7.33;;;;;;;12.30;71.40;99837.25;129669;1093;114186;-59
2021/06/05 01:31:29;;;;;;;35.75;7.75;;;;;;;12.29;71.50;99841.06;129812;1093;22532;-59
2021/06/05 01:33:57;;;;;;;22.48;7.05;;;;;;;12.28;71.48;99831.22;129668;1093;114229;-59
2021/06/05 01:36:26;;;;;;;21.65;6.68;;;;;;;12.27;71.41;99824.11;129761;1093;22675;-59
2021/06/05 01:38:58;;;;;;;20.40;6.85;;;;;;;12.26;71.54;99825.19;129779;1093;22563;-59
2021/06/05 01:41:27;;;;;;;21.48;6.90;;;;;;;12.24;71.27;99830.12;129663;1093;114407;-59
2021/06/05 01:43:56;;;;;;;18.98;6.63;;;;;;;12.22;71.50;99824.09;129774;1092;22618;-59
2021/06/05 01:46:28;;;;;;;25.25;6.13;;;;;;;12.21;71.39;99836.09;129737;1093;114150;-59
2021/06/05 01:48:59;;;;;;;27.33;6.83;;;;;;;12.19;71.71;99835.53;129769;1092;22595;-60
2021/06/05 01:51:29;;;;;;;20.08;5.80;;;;;;;12.17;71.64;99832.23;129657;1093;114399;-60
2021/06/05 01:54:07;;;;;;;17.90;7.15;;;;;;;12.16;71.54;99836.05;129839;1093;22619;-59
2021/06/05 01:56:43;;;;;;;13.43;6.05;;;;;;;12.15;71.80;99825.38;129740;1093;22568;-59
2021/06/05 01:59:19;;;;;;;22.90;6.45;;;;;;;12.14;72.02;99831.92;129635;1093;113899;-60
2021/06/05 02:01:53;;;;;;;17.23;6.43;;;;;;;12.12;72.13;99834.91;130473;1090;22608;-60
2021/06/05 02:04:21;;;;;;;16.45;5.80;;;;;;;12.08;72.22;99828.34;130354;1090;113770;-59
2021/06/05 02:06:53;;;;;;;15.40;6.17;;;;;;;12.08;72.21;99833.80;130457;1090;23688;-59
2021/06/05 02:09:24;;;;;;;20.55;6.43;;;;;;;12.05;72.08;99828.86;130365;1089;114082;-60
2021/06/05 02:12:26;;;;;;;20.05;5.80;;;;;;;12.03;72.09;99825.56;130394;1090;22628;-60
2021/06/05 02:15:16;;;;;;;10.05;5.10;;;;;;;12.02;72.36;99823.91;130259;1090;22552;-60
2021/06/05 02:17:45;;;;;;;16.65;5.93;;;;;;;12.01;72.56;99825.81;130058;1089;114153;-60
2021/06/05 02:20:37;;;;;;;15.35;6.88;;;;;;;11.99;72.79;99822.52;130150;1090;23202;-60
2021/06/05 02:23:14;;;;;;;27.48;6.30;;;;;;;11.98;72.81;99829.06;130434;1089;114973;-60
2021/06/05 02:25:43;;;;;;;17.63;6.15;;;;;;;11.98;73.09;99823.59;130178;1090;22571;-59
2021/06/05 02:28:13;;;;;;;15.55;5.95;;;;;;;12.00;73.12;99821.44;130170;1090;115558;-60
2021/06/05 02:30:43;;;;;;;20.30;5.53;;;;;;;12.02;73.37;99821.17;130192;1089;22589;-60
2021/06/05 02:33:13;;;;;;;12.65;5.45;;;;;;;12.06;73.25;99816.02;130154;1090;22680;-59
2021/06/05 02:35:45;;;;;;;20.33;6.03;;;;;;;12.08;73.71;99813.86;130099;1089;115245;-60
2021/06/05 02:38:21;;;;;;;12.68;5.75;;;;;;;12.13;73.70;99831.09;130160;1090;22644;-60
2021/06/05 02:40:51;;;;;;;14.63;6.63;;;;;;;12.18;73.73;99824.86;130059;1089;115460;-53
2021/06/05 02:43:26;;;;;;;20.35;6.75;;;;;;;12.22;73.78;99829.55;130267;1089;22555;-54
2021/06/05 02:45:58;;;;;;;17.93;6.60;;;;;;;12.26;73.79;99822.45;130402;1090;116225;-54
2021/06/05 02:48:41;;;;;;;13.28;7.23;;;;;;;12.29;73.97;99821.94;130187;1089;23188;-53
2021/06/05 02:51:10;;;;;;;11.90;6.20;;;;;;;12.33;73.94;99820.34;130484;1090;22692;-54
2021/06/05 02:53:39;;;;;;;13.55;5.68;;;;;;;12.36;73.52;99821.73;130198;1089;115031;-54
2021/06/05 02:56:09;;;;;;;16.98;6.95;;;;;;;12.36;73.80;99819.82;130253;1089;22510;-54
2021/06/05 02:58:38;;;;;;;23.53;7.73;;;;;;;12.36;73.71;99817.09;130199;1088;115216;-53
2021/06/05 03:01:08;;;;;;;18.18;7.20;;;;;;;12.38;73.81;99823.12;130469;1090;23056;-53
2021/06/05 03:03:40;;;;;;;19.85;6.93;;;;;;;12.41;73.86;99821.74;130359;1089;113843;-53
2021/06/05 03:06:08;;;;;;;15.88;6.63;;;;;;;12.44;74.08;99826.69;130493;1090;22649;-54
2021/06/05 03:08:38;;;;;;;19.08;7.73;;;;;;;12.46;74.02;99819.06;130392;1090;22551;-54
2021/06/05 03:11:20;;;;;;;30.80;6.45;;;;;;;12.54;74.28;99817.77;130399;1090;113932;-54
2021/06/05 03:13:53;;;;;;;20.08;7.95;;;;;;;12.62;74.42;99825.45;130208;1089;23422;-54
2021/06/05 03:16:23;;;;;;;21.45;6.60;;;;;;;12.70;74.33;99820.30;130378;1090;115044;-54
2021/06/05 03:19:02;;;;;;;18.75;6.30;;;;;;;12.81;74.06;99826.67;130496;1090;23206;-54
2021/06/05 03:21:33;;;;;;;12.05;6.43;;;;;;;12.95;73.66;99827.02;130048;1088;113968;-54
2021/06/05 03:24:12;;;;;;;19.20;7.00;;;;;;;13.07;73.74;99828.44;130058;1090;23153;-54
2021/06/05 03:26:42;;;;;;;24.48;6.80;;;;;;;13.22;72.99;99832.36;130086;1090;22656;-53
2021/06/05 03:29:12;;;;;;;14.85;6.60;;;;;;;13.35;72.74;99824.47;130004;1090;114091;-54
2021/06/05 03:31:42;;;;;;;21.27;6.83;;;;;;;13.48;72.46;99816.84;130080;1089;23429;-54
2021/06/05 03:34:11;;;;;;;14.18;5.80;;;;;;;13.62;72.37;99820.70;129954;1088;114612;-54
2021/06/05 03:36:39;;;;;;;13.75;5.30;;;;;;;13.77;71.49;99823.47;130117;1090;23421;-54
2021/06/05 03:39:09;;;;;;;17.50;6.83;;;;;;;13.91;70.98;99819.11;129981;1088;23360;-59
2021/06/05 03:41:44;;;;;;;12.08;5.68;;;;;;;14.05;70.08;99820.21;129998;1090;114294;-59
2021/06/05 03:44:13;;;;;;;14.73;5.98;;;;;;;14.17;69.61;99803.48;130104;1088;22718;-59
2021/06/05 03:46:42;;;;;;;11.58;6.15;;;;;;;14.33;68.93;99804.30;129959;1090;114110;-59
2021/06/05 03:49:11;;;;;;;14.03;5.80;;;;;;;14.46;68.58;99810.08;130197;1089;23144;-59
2021/06/05 03:51:40;;;;;;;12.53;5.43;;;;;;;14.60;68.25;99806.76;130363;1090;114075;-59
2021/06/05 03:54:09;;;;;;;14.83;4.90;;;;;;;14.72;67.02;99808.09;130469;1089;22540;-59
2021/06/05 03:56:37;;;;;;;10.63;5.33;;;;;;;14.83;66.75;99806.17;130482;1089;22518;-59
2021/06/05 03:59:09;;;;;;;12.10;4.78;;;;;;;14.93;66.03;99808.88;130409;1089;113916;-59
2021/06/05 04:01:38;;;;;;;12.88;5.28;;;;;;;15.03;65.72;99808.00;130468;1090;22544;-59
2021/06/05 04:04:06;;;;;;;12.85;4.68;;;;;;;15.13;65.47;99805.24;130294;1090;114522;-59
2021/06/05 04:06:35;;;;;;;12.20;5.05;;;;;;;15.23;64.72;99810.67;130518;1090;22540;-59
2021/06/05 04:09:05;;;;;;;9.45;4.28;;;;;;;15.32;64.58;99805.41;130494;1089;22578;-59
2021/06/05 04:11:34;;;;;;;8.08;4.50;;;;;;;15.39;64.58;99801.27;130381;1088;113827;-60
2021/06/05 04:14:05;;;;;;;8.55;4.18;;;;;;;15.49;64.48;99803.13;130220;1090;22630;-59
2021/06/05 04:16:34;;;;;;;10.88;4.30;;;;;;;15.58;63.60;99801.48;130334;1090;113905;-60
2021/06/05 04:19:02;;;;;;;7.68;4.43;;;;;;;15.67;63.22;99807.18;130417;1089;22579;-60
2021/06/05 04:21:31;;;;;;;8.38;3.85;;;;;;;15.74;62.95;99807.66;130025;1090;114463;-60
2021/06/05 04:23:59;;;;;;;11.97;4.50;;;;;;;15.81;62.68;99798.02;130453;1090;22526;-60
2021/06/05 04:26:28;;;;;;;6.88;3.60;;;;;;;15.93;62.09;99799.58;130460;1088;22559;-60
2021/06/05 04:28:56;;;;;;;4.60;3.20;;;;;;;16.00;61.33;99800.91;130321;1090;113941;-60
2021/06/05 04:31:27;;;;;;;8.08;3.43;;;;;;;16.08;61.14;99802.20;130459;1088;22583;-60
2021/06/05 04:33:55;;;;;;;4.68;2.98;;;;;;;16.17;60.77;99803.22;130364;1089;114135;-60
2021/06/05 04:36:23;;;;;;;7.45;3.53;;;;;;;16.23;60.53;99800.15;130512;1089;22602;-59
2021/06/05 04:38:52;;;;;;;8.23;3.48;;;;;;;16.31;60.48;99795.13;130500;1089;22532;-59
2021/06/05 04:41:21;;;;;;;6.55;2.80;;;;;;;16.37;59.95;99794.80;130372;1090;113820;-59
2021/06/05 04:43:52;;;;;;;8.33;3.05;;;;;;;16.45;59.69;99794.16;130521;1090;22529;-59
2021/06/05 04:46:22;;;;;;;6.13;2.90;;;;;;;16.54;58.95;99794.37;130359;1089;113406;-60
2021/06/05 04:48:51;;;;;;;6.83;3.18;;;;;;;16.63;58.33;99789.89;130468;1090;23436;-60
2021/06/05 04:54:12;;;;;;;9.28;2.80;;;;;;;16.78;57.94;99780.64;125314;1094;22942;-59
2021/06/05 04:56:43;;;;;;;7.48;2.63;;;;;;;16.86;57.68;99783.59;129698;1095;23228;-59
2021/06/05 04:59:13;;;;;;;6.58;3.18;;;;;;;16.96;57.48;99786.22;129654;1096;113519;-59
2021/06/05 05:01:41;;;;;;;6.63;2.33;;;;;;;17.06;56.61;99785.27;129744;1095;23421;-59
2021/06/05 05:04:10;;;;;;;3.28;2.55;;;;;;;17.17;56.17;99784.02;129650;1095;113546;-59
2021/06/05 05:06:39;;;;;;;6.90;2.85;;;;;;;17.27;56.12;99783.08;129797;1095;22579;-60
2021/06/05 05:09:08;;;;;;;6.90;3.25;;;;;;;17.39;55.34;99782.64;129777;1095;22664;-59
2021/06/05 05:11:37;;;;;;;13.53;2.85;;;;;;;17.52;55.34;99774.45;129671;1095;113762;-59
2021/06/05 05:14:06;;;;;;;7.25;2.70;;;;;;;17.70;53.91;99777.55;129771;1096;22546;-59
2021/06/05 05:16:38;;;;;;;6.08;2.75;;;;;;;17.90;53.49;99779.97;129551;1096;114305;-59
2021/06/05 05:19:07;;;;;;;5.05;3.00;;;;;;;18.12;53.23;99779.36;129803;1095;22561;-59
2021/06/05 05:21:38;;;;;;;10.73;2.78;;;;;;;18.37;52.37;99778.91;129789;1094;22560;-59
2021/06/05 05:24:11;;;;;;;7.65;2.45;;;;;;;18.64;51.44;99770.70;129656;1096;113481;-59
2021/06/05 05:26:39;;;;;;;5.95;2.28;;;;;;;18.92;50.52;99765.19;129754;1096;23332;-60
2021/06/05 05:29:08;;;;;;;11.55;3.43;;;;;;;19.19;50.10;99756.88;129677;1095;113593;-59
2021/06/05 05:31:45;;;;;;;4.90;2.70;;;;;;;19.45;49.22;99759.92;129755;1095;23753;-58
2021/06/05 05:34:14;;;;;;;9.73;2.73;;;;;;;19.67;49.18;99756.39;129685;1095;113923;-58
2021/06/05 05:36:51;;;;;;;9.13;2.88;;;;;;;19.90;48.84;99746.19;129812;1095;23369;-58
2021/06/05 05:39:20;;;;;;;8.35;3.10;;;;;;;20.07;48.12;99749.86;129772;1096;22580;-47
2021/06/05 05:41:49;;;;;;;6.23;2.78;;;;;;;20.23;48.19;99752.24;129654;1096;113420;-47
2021/06/05 05:44:19;;;;;;;4.85;2.10;;;;;;;20.33;47.03;99744.52;129792;1095;22567;-47
2021/06/05 05:46:49;;;;;;;3.75;2.80;;;;;;;20.42;47.07;99750.11;129663;1096;113612;-47
2021/06/05 05:49:18;;;;;;;5.35;2.18;;;;;;;20.48;47.33;99736.97;129760;1096;22580;-47
2021/06/05 05:51:46;;;;;;;3.63;2.18;;;;;;;20.51;46.02;99739.08;129774;1096;23574;-47
2021/06/05 05:54:14;;;;;;;4.53;2.48;;;;;;;20.50;45.58;99742.98;129635;1096;113611;-46
2021/06/05 05:56:43;;;;;;;5.65;2.63;;;;;;;20.48;45.70;99739.73;129811;1096;22664;-47
2021/06/05 05:59:15;;;;;;;3.20;2.50;;;;;;;20.43;46.50;99740.68;129683;1096;114965;-47
2021/06/05 06:01:43;;;;;;;7.15;2.70;;;;;;;20.34;45.82;99731.50;129758;1095;22565;-47
2021/06/05 06:04:12;;;;;;;3.73;2.38;;;;;;;20.27;45.83;99736.65;129640;1096;113762;-46
2021/06/05 06:06:41;;;;;;;6.80;2.48;;;;;;;20.20;45.88;99737.09;129746;1095;22590;-47
2021/06/05 06:09:13;;;;;;;4.35;2.28;;;;;;;20.19;46.55;99738.25;129721;1096;22660;-47
2021/06/05 06:11:46;;;;;;;5.58;2.38;;;;;;;20.14;46.49;99741.14;129668;1096;113677;-47
2021/06/05 06:14:15;;;;;;;4.58;2.63;;;;;;;20.10;46.30;99724.34;129716;1095;22628;-47
2021/06/05 06:16:44;;;;;;;5.78;2.30;;;;;;;20.04;46.58;99724.81;129683;1095;113847;-47
2021/06/05 06:19:13;;;;;;;7.30;2.88;;;;;;;20.02;46.61;99725.13;129790;1095;22602;-47
2021/06/05 06:21:42;;;;;;;4.83;2.20;;;;;;;20.03;46.63;99723.99;129732;1095;22555;-48
2021/06/05 06:24:11;;;;;;;4.75;2.43;;;;;;;20.04;45.81;99714.56;129650;1095;114387;-47
2021/06/05 06:26:39;;;;;;;5.98;2.30;;;;;;;20.02;46.58;99704.94;129773;1095;22595;-49
2021/06/05 06:29:19;;;;;;;4.85;2.40;;;;;;;20.04;46.42;99709.03;129672;1095;113715;-47
2021/06/05 06:31:48;;;;;;;3.90;2.53;;;;;;;20.02;46.51;99704.94;129730;1095;22580;-47
2021/06/05 06:34:16;;;;;;;9.93;2.50;;;;;;;19.96;46.08;99715.30;129641;1096;113790;-47
2021/06/05 06:37:03;;;;;;;6.35;2.25;;;;;;;19.92;46.35;99711.52;129834;1094;23427;-47
2021/06/05 06:39:32;;;;;;;8.03;2.08;;;;;;;19.93;46.56;99715.11;129771;1095;22576;-47
2021/06/05 06:42:00;;;;;;;10.50;2.43;;;;;;;19.95;46.34;99710.91;129645;1096;113517;-48
2021/06/05 06:44:29;;;;;;;3.80;2.38;;;;;;;19.97;46.34;99707.83;129793;1095;22529;-48
2021/06/05 06:46:59;;;;;;;3.50;1.90;;;;;;;19.99;45.94;99708.33;129643;1096;113593;-48
2021/06/05 06:49:28;;;;;;;6.40;2.38;;;;;;;19.96;45.75;99711.72;129805;1095;22600;-48
2021/06/05 06:51:56;;;;;;;2.65;2.03;;;;;;;19.94;45.34;99700.97;129750;1096;23244;-48
2021/06/05 06:54:25;;;;;;;10.65;2.75;;;;;;;19.93;44.93;99710.39;129747;1096;22990;-48
2021/06/05 06:56:53;;;;;;;5.18;1.78;;;;;;;19.89;45.88;99703.89;129730;1095;22713;-48
2021/06/05 06:59:22;;;;;;;3.93;1.98;;;;;;;19.93;45.48;99710.39;129666;1096;113515;-47
2021/06/05 07:01:50;;;;;;;8.55;2.03;;;;;;;19.98;45.04;99701.16;129752;1095;22596;-47
2021/06/05 07:04:19;;;;;;;6.18;2.38;;;;;;;20.03;45.84;99707.39;129699;1096;113659;-48
2021/06/05 07:06:47;;;;;;;7.85;2.35;;;;;;;20.08;45.26;99701.70;129759;1096;23118;-48
2021/06/05 07:09:16;;;;;;;12.05;2.25;;;;;;;20.12;44.82;99697.19;129772;1095;22562;-48
2021/06/05 07:11:44;;;;;;;3.88;2.18;;;;;;;20.14;45.30;99702.41;129644;1096;114170;-48
2021/06/05 07:14:13;;;;;;;2.90;1.90;;;;;;;20.16;44.19;99696.55;129784;1096;22568;-48
2021/06/05 07:16:42;;;;;;;4.53;1.70;;;;;;;20.17;45.05;99698.19;129653;1095;113624;-48
2021/06/05 07:19:10;;;;;;;5.88;2.38;;;;;;;20.19;44.64;99693.16;129793;1095;22822;-48
2021/06/05 07:21:39;;;;;;;4.58;2.05;;;;;;;20.22;44.59;99686.97;129798;1095;22659;-50
2021/06/05 07:24:07;;;;;;;17.23;2.70;;;;;;;20.25;45.05;99692.69;129655;1095;113990;-48
2021/06/05 07:26:36;;;;;;;13.68;3.40;;;;;;;20.32;45.09;99692.25;129785;1095;22575;-47
2021/06/05 07:29:07;;;;;;;2.18;1.98;;;;;;;20.40;45.24;99677.66;129665;1095;113755;-47
2021/06/05 07:31:45;;;;;;;6.25;2.15;;;;;;;20.48;44.46;99674.13;129757;1095;23450;-47
2021/06/05 07:34:15;;;;;;;11.33;2.43;;;;;;;20.54;43.95;99675.59;129676;1095;114222;-48
2021/06/05 07:36:51;;;;;;;12.80;2.30;;;;;;;20.58;43.35;99676.59;129722;1096;23539;-48
2021/06/05 07:39:22;;;;;;;7.03;2.13;;;;;;;20.61;43.79;99680.68;129745;1095;22648;-48
2021/06/05 07:41:50;;;;;;;5.03;2.08;;;;;;;20.64;43.13;99668.94;129667;1096;113478;-48
2021/06/05 07:44:19;;;;;;;7.95;2.05;;;;;;;20.63;42.63;99668.13;129783;1096;23407;-47
2021/06/05 07:46:50;;;;;;;4.98;2.30;;;;;;;20.58;42.87;99661.94;129640;1095;113613;-48
2021/06/05 07:49:19;;;;;;;6.63;2.30;;;;;;;20.51;43.00;99661.57;129801;1096;22583;-48
2021/06/05 07:51:47;;;;;;;6.03;2.15;;;;;;;20.45;43.43;99656.20;129762;1096;22558;-51
2021/06/05 07:54:16;;;;;;;2.83;2.23;;;;;;;20.43;42.84;99655.70;129673;1095;113388;-47
2021/06/05 07:56:48;;;;;;;22.15;3.90;;;;;;;20.37;42.92;99648.66;129767;1096;22647;-48
2021/06/05 07:59:18;;;;;;;4.88;2.60;;;;;;;20.36;43.29;99649.80;129689;1095;113608;-47
2021/06/05 08:01:47;;;;;;;3.85;2.25;;;;;;;20.38;43.98;99646.71;129725;1095;22596;-48
2021/06/05 08:04:17;;;;;;;9.73;2.58;;;;;;;20.44;44.09;99646.26;129612;1095;113932;-48
2021/06/05 08:06:46;;;;;;;7.43;2.20;;;;;;;20.50;43.38;99649.68;129760;1096;22554;-48
2021/06/05 08:09:14;;;;;;;7.08;2.83;;;;;;;20.55;43.42;99648.73;129802;1095;22585;-48
2021/06/05 08:11:42;;;;;;;6.68;4.00;;;;;;;20.61;43.47;99641.92;129670;1096;113597;-48
2021/06/05 08:14:15;;;;;;;11.18;6.93;;;;;;;20.67;44.16;99644.20;129782;1095;22600;-48
2021/06/05 08:16:43;;;;;;;16.23;4.50;;;;;;;20.78;43.57;99647.48;129649;1096;113789;-48
2021/06/05 08:19:14;;;;;;;17.30;7.38;;;;;;;20.85;42.36;99639.52;129777;1096;22581;-47
2021/06/05 08:21:46;;;;;;;21.05;9.13;;;;;;;20.88;42.58;99641.66;129781;1096;22574;-48
2021/06/05 08:24:16;;;;;;;16.63;6.25;;;;;;;20.91;42.78;99634.66;129638;1096;113592;-48
2021/06/05 08:26:46;;;;;;;21.03;11.48;;;;;;;20.88;41.71;99641.66;129762;1095;22568;-47
2021/06/05 08:29:14;;;;;;;9.53;3.95;;;;;;;20.80;41.42;99634.13;129642;1096;114066;-48
2021/06/05 08:31:43;;;;;;;14.35;2.85;;;;;;;20.73;41.93;99628.27;129761;1095;22581;-48
2021/06/05 08:34:11;;;;;;;8.70;2.48;;;;;;;20.66;42.42;99631.49;129621;1096;114101;-48
2021/06/05 08:36:40;;;;;;;7.10;2.48;;;;;;;20.62;42.75;99627.76;129471;1095;22710;-49
2021/06/05 08:39:08;;;;;;;25.05;12.35;;;;;;;20.59;42.05;99630.34;129719;1095;22554;-52
2021/06/05 08:41:47;;;;;;;12.65;8.20;;;;;;;20.56;42.32;99631.80;129681;1095;113931;-53
2021/06/05 08:44:20;;;;;;;5.48;3.10;;;;;;;20.57;42.72;99627.08;129744;1095;23024;-53
2021/06/05 08:47:02;;;;;;;4.43;2.50;;;;;;;20.62;42.49;99633.30;129672;1095;113576;-53
2021/06/05 08:49:35;;;;;;;10.40;2.55;;;;;;;20.67;41.61;99622.05;129768;1096;22594;-53
2021/06/05 08:52:06;;;;;;;11.10;2.80;;;;;;;20.68;42.20;99623.68;129646;1095;114025;-53
2021/06/05 08:54:42;;;;;;;5.25;2.73;;;;;;;20.67;42.16;99619.28;129734;1096;22623;-53
2021/06/05 08:57:14;;;;;;;5.30;2.68;;;;;;;20.65;41.78;99623.50;129634;1095;22588;-53
2021/06/05 08:59:43;;;;;;;6.80;4.13;;;;;;;20.63;41.84;99617.50;129655;1096;113726;-53
2021/06/05 09:02:11;;;;;;;6.28;2.28;;;;;;;20.60;41.81;99612.60;129694;1095;22641;-53
2021/06/05 09:04:40;;;;;;;6.68;2.00;;;;;;;20.58;40.87;99614.88;129588;1096;113987;-53
2021/06/05 09:07:13;;;;;;;9.23;2.50;;;;;;;20.53;41.34;99610.29;129467;1095;22618;-53
2021/06/05 09:09:43;;;;;;;6.90;2.65;;;;;;;20.51;41.11;99615.33;129721;1095;23143;-53
2021/06/05 09:12:13;;;;;;;4.15;2.38;;;;;;;20.51;40.83;99611.74;129570;1096;114215;-53
2021/06/05 09:14:42;;;;;;;6.38;2.83;;;;;;;20.53;40.54;99609.47;129785;1095;22595;-53
2021/06/05 09:17:17;;;;;;;9.25;3.00;;;;;;;20.56;40.48;99609.66;129622;1096;113938;-54
2021/06/05 09:20:05;;;;;;;9.90;3.03;;;;;;;20.56;40.70;99609.66;129790;1097;22566;-54
2021/06/05 09:22:35;;;;;;;4.30;2.38;;;;;;;20.58;41.04;99614.88;129566;1095;114199;-54
2021/06/05 09:25:21;;;;;;;6.03;2.45;;;;;;;20.58;41.46;99610.16;129752;1096;22590;-54
2021/06/05 09:27:50;;;;;;;5.93;2.40;;;;;;;20.56;41.17;99608.84;129747;1096;22680;-54
2021/06/05 09:30:24;;;;;;;5.30;2.95;;;;;;;20.53;41.34;99604.75;129658;1095;113557;-54
2021/06/05 09:32:57;;;;;;;5.65;2.68;;;;;;;20.51;41.41;99598.72;129776;1096;22709;-54
2021/06/05 09:35:34;;;;;;;7.88;2.55;;;;;;;20.50;41.00;99596.27;129653;1095;113833;-54
2021/06/05 09:38:34;;;;;;;6.25;3.63;;;;;;;20.48;41.52;99596.63;129706;1096;22665;-54
2021/06/05 09:41:18;;;;;;;6.83;2.40;;;;;;;20.47;41.60;99608.83;125962;1096;113916;-53
2021/06/05 09:43:49;;;;;;;7.73;3.98;;;;;;;20.44;41.53;99596.44;129696;1095;22673;-54
2021/06/05 09:46:34;;;;;;;7.50;2.40;;;;;;;20.44;42.20;99601.16;129642;1096;114317;-54
2021/06/05 09:49:28;;;;;;;4.55;2.00;;;;;;;20.43;41.67;99600.34;129786;1095;22605;-54
2021/06/05 09:52:10;;;;;;;7.53;2.43;;;;;;;20.41;41.63;99593.49;129751;1095;22731;-54
2021/06/05 09:54:49;;;;;;;5.83;2.65;;;;;;;20.41;42.01;99593.49;129560;1096;113547;-53
2021/06/05 09:57:32;;;;;;;10.40;2.80;;;;;;;20.41;41.57;99599.84;129717;1095;23173;-54
2021/06/05 10:00:29;;;;;;;5.95;1.90;;;;;;;20.48;42.69;99593.85;129677;1095;115529;-54
2021/06/05 10:03:33;;;;;;;5.00;1.85;;;;;;;20.57;41.50;99589.14;129719;1095;22664;-54
2021/06/05 10:06:15;;;;;;;4.50;2.10;;;;;;;20.68;41.88;99590.45;129239;1096;113847;-54
2021/06/05 10:08:44;;;;;;;2.15;1.70;;;;;;;20.78;40.65;99587.37;129351;1096;23130;-54
2021/06/05 10:11:29;;;;;;;5.15;2.13;;;;;;;20.85;39.39;99575.83;129230;1096;114141;-53
2021/06/05 10:14:06;;;;;;;2.38;1.70;;;;;;;20.86;39.24;99574.69;129365;1096;22664;-53
2021/06/05 10:16:41;;;;;;;3.45;1.65;;;;;;;20.85;38.51;99570.28;129190;1096;114465;-55
2021/06/05 10:19:41;;;;;;;6.75;3.70;;;;;;;20.85;39.17;99572.23;129325;1096;22571;-54
2021/06/05 10:22:09;;;;;;;5.38;3.15;;;;;;;20.84;40.55;99576.96;128544;1100;23001;-54
2021/06/05 10:24:50;;;;;;;4.75;2.58;;;;;;;20.82;40.05;99568.16;128422;1098;113631;-54
2021/06/05 10:27:26;;;;;;;6.28;2.28;;;;;;;20.79;40.40;99569.61;128556;1098;22612;-54
2021/06/05 10:29:58;;;;;;;4.70;2.90;;;;;;;20.74;41.19;99572.56;128502;1100;114294;-54
2021/06/05 10:32:31;;;;;;;3.90;3.20;;;;;;;20.71;41.08;99566.84;128538;1100;23252;-54
2021/06/05 10:35:22;;;;;;;10.58;3.43;;;;;;;20.67;41.89;99569.45;128447;1100;114279;-54
2021/06/05 10:37:51;;;;;;;4.33;2.43;;;;;;;20.60;41.63;99560.81;128593;1098;22932;-54
2021/06/05 10:40:21;;;;;;;5.90;2.20;;;;;;;20.57;42.51;99564.22;128809;1100;113949;-49
2021/06/05 10:42:51;;;;;;;3.25;1.83;;;;;;;20.55;42.14;99569.27;129296;1100;23413;-49
2021/06/05 10:45:32;;;;;;;7.03;2.45;;;;;;;20.53;42.04;99560.46;129298;1100;22551;-49
2021/06/05 10:48:06;;;;;;;5.05;4.05;;;;;;;20.53;42.49;99568.77;129195;1100;113890;-49
2021/06/05 10:50:44;;;;;;;5.53;2.60;;;;;;;20.55;42.35;99558.19;129303;1098;22621;-49
2021/06/05 10:53:22;;;;;;;5.25;2.88;;;;;;;20.58;42.27;99563.09;129191;1098;113892;-49
2021/06/05 10:55:53;;;;;;;8.38;2.80;;;;;;;20.63;41.57;99562.13;129281;1100;23421;-49
2021/06/05 10:58:51;;;;;;;4.90;2.83;;;;;;;20.69;41.45;99558.05;129215;1096;113302;-49
2021/06/05 11:01:29;;;;;;;14.18;4.13;;;;;;;20.74;41.66;99557.91;129770;1096;23415;-49
2021/06/05 11:03:59;;;;;;;5.55;2.63;;;;;;;20.79;41.75;99561.31;129767;1096;22660;-49
2021/06/05 11:06:29;;;;;;;6.50;3.35;;;;;;;20.86;41.27;99563.61;129661;1096;113803;-49
2021/06/05 11:09:00;;;;;;;12.48;4.18;;;;;;;20.90;41.18;99559.05;129442;1096;22606;-49
2021/06/05 11:11:40;;;;;;;7.38;4.00;;;;;;;20.92;40.72;99556.75;129583;1096;114256;-49
2021/06/05 11:14:23;;;;;;;6.60;3.45;;;;;;;20.94;41.09;99556.42;129781;1096;22613;-49
2021/06/05 11:16:59;;;;;;;7.23;4.55;;;;;;;20.95;41.01;99547.80;129661;1095;114079;-49
2021/06/05 11:19:42;;;;;;;12.33;8.83;;;;;;;20.97;40.93;99553.83;129763;1096;22558;-49
2021/06/05 11:22:25;;;;;;;13.05;5.98;;;;;;;20.98;40.86;99549.10;129681;1095;115253;-49
2021/06/05 11:25:07;;;;;;;9.50;4.93;;;;;;;20.99;40.52;99547.97;129734;1096;22568;-49
2021/06/05 11:27:52;;;;;;;49.10;35.15;;;;;;;20.99;39.85;99546.01;129769;1095;22627;-49
2021/06/05 11:30:20;;;;;;;21.68;12.03;;;;;;;20.99;39.95;99546.01;129677;1096;114493;-49
2021/06/05 11:33:08;;;;;;;6.85;4.20;;;;;;;20.98;40.17;99541.61;129801;1095;23599;-49
2021/06/05 11:35:52;;;;;;;20.93;8.68;;;;;;;21.05;40.02;99538.36;129659;1095;115505;-49
2021/06/05 11:38:20;;;;;;;25.93;17.98;;;;;;;21.10;40.45;99546.48;129740;1096;22637;-49
2021/06/05 11:40:51;;;;;;;20.95;14.13;;;;;;;21.14;38.88;99539.97;129655;1096;114329;-49
2021/06/05 11:43:20;;;;;;;6.78;4.78;;;;;;;21.18;39.46;99542.91;129761;1096;22619;-49
2021/06/05 11:46:22;;;;;;;7.40;2.75;;;;;;;21.20;39.60;99531.53;129775;1095;22545;-49
2021/06/05 11:49:01;;;;;;;8.37;2.40;;;;;;;21.24;39.59;99530.53;129280;1095;113665;-49